Time;durP1;ratioP1;P1;durP2;ratioP2;P2;SDS_P1;SDS_P2;PMS_P1;PMS_P2;Temp;Humidity;BMP_temperature;BMP_pressure;BME280_temperature;BME280_humidity;BME280_pressure;Samples;Min_cycle;Max_cycle;Signal;HPM_P1;HPM_P2
2022/02/28 00:06:19;;;;;;;;;12.00;12.00;;;;;;;;2;261074623;261074623;-84
2022/02/28 00:15:20;;;;;;;;;10.00;10.00;;;;;;;;2;261076606;261076606;-85
2022/02/28 00:23:35;;;;;;;;;15.50;12.50;;;;;;;;2;261078821;261078821;-85
2022/02/28 00:32:36;;;;;;;;;12.50;12.50;;;;;;;;2;261079195;261079195;-85
2022/02/28 00:40:51;;;;;;;;;9.00;9.00;;;;;;;;2;261075876;261075876;-85
2022/02/28 00:49:52;;;;;;;;;15.00;10.00;;;;;;;;2;261075892;261075892;-85
2022/02/28 00:58:07;;;;;;;;;4.50;4.50;;;;;;;;2;261072661;261072661;-84
2022/02/28 01:07:08;;;;;;;;;8.00;8.00;;;;;;;;2;261073940;261073940;-85
2022/02/28 01:15:23;;;;;;;;;9.50;9.50;;;;;;;;2;261074236;261074236;-85
2022/02/28 01:24:24;;;;;;;;;12.00;12.00;;;;;;;;2;261076544;261076544;-84
2022/02/28 01:32:40;;;;;;;;;27.50;15.50;;;;;;;;2;261072183;261072183;-85
2022/02/28 01:41:40;;;;;;;;;13.50;9.50;;;;;;;;2;261075050;261075050;-85
2022/02/28 01:49:55;;;;;;;;;6.50;6.50;;;;;;;;2;261077699;261077699;-84
2022/02/28 01:58:56;;;;;;;;;12.00;8.50;;;;;;;;2;261076342;261076342;-85
2022/02/28 02:07:11;;;;;;;;;5.00;5.00;;;;;;;;2;261075108;261075108;-85
2022/02/28 02:16:12;;;;;;;;;18.00;5.00;;;;;;;;2;261077365;261077365;-84
2022/02/28 02:24:27;;;;;;;;;3.00;3.00;;;;;;;;2;261076019;261076019;-85
2022/02/28 02:33:28;;;;;;;;;3.50;3.50;;;;;;;;2;261074908;261074908;-85
2022/02/28 02:41:43;;;;;;;;;7.00;7.00;;;;;;;;2;261077033;261077033;-84
2022/02/28 02:50:44;;;;;;;;;7.50;7.50;;;;;;;;2;261072227;261072227;-85
2022/02/28 02:58:59;;;;;;;;;6.50;6.50;;;;;;;;2;261073257;261073257;-84
2022/02/28 03:08:00;;;;;;;;;4.50;4.50;;;;;;;;2;261071748;261071748;-85
2022/02/28 03:16:15;;;;;;;;;7.50;6.00;;;;;;;;2;261078025;261078025;-84
2022/02/28 03:25:16;;;;;;;;;9.00;6.00;;;;;;;;2;261076128;261076128;-84
2022/02/28 03:33:31;;;;;;;;;6.00;6.00;;;;;;;;2;261076183;261076183;-85
2022/02/28 03:42:31;;;;;;;;;7.50;7.50;;;;;;;;2;261073774;261073774;-85
2022/02/28 03:50:47;;;;;;;;;2.00;2.00;;;;;;;;2;261078079;261078079;-84
2022/02/28 03:59:47;;;;;;;;;16.50;8.00;;;;;;;;2;261079500;261079500;-85
2022/02/28 04:08:03;;;;;;;;;13.00;9.00;;;;;;;;2;261073886;261073886;-84
2022/02/28 04:17:04;;;;;;;;;5.00;5.00;;;;;;;;2;261077441;261077441;-84
2022/02/28 04:25:19;;;;;;;;;6.00;6.00;;;;;;;;2;261072374;261072374;-84
2022/02/28 04:34:19;;;;;;;;;10.50;10.50;;;;;;;;2;261074806;261074806;-84
2022/02/28 04:42:35;;;;;;;;;3.50;3.50;;;;;;;;2;261076427;261076427;-84
2022/02/28 04:51:35;;;;;;;;;4.50;4.50;;;;;;;;2;261074750;261074750;-84
2022/02/28 04:59:51;;;;;;;;;3.50;3.50;;;;;;;;2;261076752;261076752;-84
2022/02/28 05:08:51;;;;;;;;;15.50;3.50;;;;;;;;2;261073951;261073951;-84
2022/02/28 05:17:07;;;;;;;;;7.50;7.50;;;;;;;;2;261074124;261074124;-85
2022/02/28 05:26:07;;;;;;;;;5.00;5.00;;;;;;;;2;261075469;261075469;-84
2022/02/28 05:34:23;;;;;;;;;7.00;7.00;;;;;;;;2;261081038;261081038;-85
2022/02/28 05:43:23;;;;;;;;;9.00;7.50;;;;;;;;2;261076421;261076421;-85
2022/02/28 05:51:38;;;;;;;;;5.50;5.50;;;;;;;;2;261069096;261069096;-84
2022/02/28 06:00:39;;;;;;;;;11.00;11.00;;;;;;;;2;261076092;261076092;-85
2022/02/28 06:08:54;;;;;;;;;7.00;7.00;;;;;;;;2;261077098;261077098;-85
2022/02/28 06:17:55;;;;;;;;;9.00;9.00;;;;;;;;2;261075299;261075299;-84
2022/02/28 06:26:10;;;;;;;;;10.00;10.00;;;;;;;;2;261078062;261078062;-85
2022/02/28 06:35:11;;;;;;;;;15.00;15.00;;;;;;;;2;261077146;261077146;-85
2022/02/28 06:43:26;;;;;;;;;7.00;7.00;;;;;;;;2;261076595;261076595;-85
2022/02/28 06:52:26;;;;;;;;;26.00;9.50;;;;;;;;2;261072645;261072645;-86
2022/02/28 07:00:42;;;;;;;;;8.50;8.50;;;;;;;;2;261076142;261076142;-85
2022/02/28 07:09:46;;;;;;;;;11.50;11.50;;;;;;;;2;261075657;261075657;-85
2022/02/28 07:18:02;;;;;;;;;7.00;7.00;;;;;;;;2;261072886;261072886;-85
2022/02/28 07:27:02;;;;;;;;;13.50;9.50;;;;;;;;2;261070790;261070790;-83
2022/02/28 07:35:18;;;;;;;;;10.00;10.00;;;;;;;;2;261075332;261075332;-84
2022/02/28 07:44:18;;;;;;;;;10.50;10.50;;;;;;;;2;261074962;261074962;-83
2022/02/28 07:52:34;;;;;;;;;10.00;10.00;;;;;;;;2;261073968;261073968;-84
2022/02/28 08:01:34;;;;;;;;;14.00;7.00;;;;;;;;2;261076793;261076793;-83
2022/02/28 08:09:50;;;;;;;;;8.50;8.50;;;;;;;;2;261075494;261075494;-84
2022/02/28 08:18:50;;;;;;;;;4.50;4.50;;;;;;;;2;261079409;261079409;-84
2022/02/28 08:27:06;;;;;;;;;12.50;12.50;;;;;;;;2;261073978;261073978;-85
2022/02/28 08:36:06;;;;;;;;;11.50;11.50;;;;;;;;2;261074391;261074391;-85
2022/02/28 08:44:21;;;;;;;;;15.50;15.50;;;;;;;;2;261074649;261074649;-85
2022/02/28 08:53:22;;;;;;;;;11.00;11.00;;;;;;;;2;261076966;261076966;-84
2022/02/28 09:01:37;;;;;;;;;10.00;10.00;;;;;;;;2;261075321;261075321;-85
2022/02/28 09:10:38;;;;;;;;;16.00;12.00;;;;;;;;2;261074289;261074289;-85
2022/02/28 09:18:53;;;;;;;;;6.50;6.50;;;;;;;;2;261076732;261076732;-85
2022/02/28 09:27:54;;;;;;;;;12.00;12.00;;;;;;;;2;261072998;261072998;-85
2022/02/28 09:36:10;;;;;;;;;17.00;17.00;;;;;;;;2;261076110;261076110;-85
2022/02/28 09:45:10;;;;;;;;;11.00;11.00;;;;;;;;2;261073837;261073837;-85
2022/02/28 09:53:26;;;;;;;;;13.00;13.00;;;;;;;;2;261072640;261072640;-85
2022/02/28 10:02:27;;;;;;;;;15.50;10.00;;;;;;;;2;261076748;261076748;-85
2022/02/28 10:10:47;;;;;;;;;12.50;12.50;;;;;;;;2;261075459;261075459;-86
2022/02/28 10:19:48;;;;;;;;;12.00;12.00;;;;;;;;2;261076156;261076156;-85
2022/02/28 10:28:17;;;;;;;;;16.50;16.50;;;;;;;;2;261078780;261078780;-85
2022/02/28 10:37:17;;;;;;;;;16.50;16.50;;;;;;;;2;261079941;261079941;-85
2022/02/28 10:45:34;;;;;;;;;20.00;17.00;;;;;;;;2;261077928;261077928;-85
2022/02/28 10:54:36;;;;;;;;;34.00;18.50;;;;;;;;2;261080361;261080361;-86
2022/02/28 11:03:01;;;;;;;;;16.50;16.50;;;;;;;;2;261076648;261076648;-85
2022/02/28 11:12:20;;;;;;;;;13.50;13.50;;;;;;;;2;261073130;261073130;-85
2022/02/28 11:20:36;;;;;;;;;14.00;14.00;;;;;;;;2;261074413;261074413;-85
2022/02/28 11:29:37;;;;;;;;;20.00;16.00;;;;;;;;2;261075128;261075128;-86
2022/02/28 11:37:52;;;;;;;;;35.00;17.50;;;;;;;;2;261074286;261074286;-85
2022/02/28 11:47:04;;;;;;;;;17.50;5.50;;;;;;;;2;261073830;261073830;-85
2022/02/28 11:55:19;;;;;;;;;31.50;19.50;;;;;;;;2;261075129;261075129;-86
2022/02/28 12:04:21;;;;;;;;;19.00;15.00;;;;;;;;2;261075758;261075758;-85
2022/02/28 12:12:37;;;;;;;;;12.00;9.00;;;;;;;;2;261076779;261076779;-86
2022/02/28 12:21:38;;;;;;;;;24.00;24.00;;;;;;;;2;261073522;261073522;-85
2022/02/28 12:29:53;;;;;;;;;13.50;13.50;;;;;;;;2;261076948;261076948;-85
2022/02/28 12:38:55;;;;;;;;;18.00;18.00;;;;;;;;2;261074920;261074920;-86
2022/02/28 12:47:10;;;;;;;;;17.50;17.50;;;;;;;;2;261076123;261076123;-86
2022/02/28 12:56:12;;;;;;;;;35.00;12.00;;;;;;;;2;261075344;261075344;-85
2022/02/28 13:04:28;;;;;;;;;16.50;12.50;;;;;;;;2;261077362;261077362;-85
2022/02/28 13:13:29;;;;;;;;;13.50;13.50;;;;;;;;2;261072278;261072278;-87
2022/02/28 13:22:04;;;;;;;;;8.50;8.50;;;;;;;;2;261075219;261075219;-86
2022/02/28 13:31:06;;;;;;;;;10.50;5.50;;;;;;;;2;261074235;261074235;-84
2022/02/28 13:39:25;;;;;;;;;24.50;15.50;;;;;;;;2;261076363;261076363;-86
2022/02/28 13:48:25;;;;;;;;;12.50;12.50;;;;;;;;2;261074638;261074638;-86
2022/02/28 13:56:41;;;;;;;;;18.50;18.50;;;;;;;;2;261077803;261077803;-85
2022/02/28 14:05:43;;;;;;;;;13.50;13.50;;;;;;;;2;261076515;261076515;-86
2022/02/28 14:13:59;;;;;;;;;11.50;11.50;;;;;;;;2;261074621;261074621;-86
2022/02/28 14:23:12;;;;;;;;;14.00;10.00;;;;;;;;2;261072379;261072379;-86
2022/02/28 14:31:27;;;;;;;;;7.50;7.50;;;;;;;;2;261075999;261075999;-85
2022/02/28 14:40:29;;;;;;;;;12.00;8.00;;;;;;;;2;261075474;261075474;-84
2022/02/28 14:48:44;;;;;;;;;12.00;12.00;;;;;;;;2;261072016;261072016;-85
2022/02/28 14:57:45;;;;;;;;;7.50;7.50;;;;;;;;2;261078900;261078900;-84
2022/02/28 15:06:00;;;;;;;;;15.50;11.50;;;;;;;;2;261073745;261073745;-84
2022/02/28 15:15:01;;;;;;;;;12.00;5.00;;;;;;;;2;261076660;261076660;-84
2022/02/28 15:23:16;;;;;;;;;8.50;8.50;;;;;;;;2;261075877;261075877;-83
2022/02/28 15:32:17;;;;;;;;;14.00;8.50;;;;;;;;2;261074278;261074278;-84
2022/02/28 15:40:32;;;;;;;;;32.50;8.50;;;;;;;;2;261076266;261076266;-84
2022/02/28 15:49:33;;;;;;;;;22.00;13.50;;;;;;;;2;261074723;261074723;-84
2022/02/28 15:57:49;;;;;;;;;13.00;13.00;;;;;;;;2;261075278;261075278;-84
2022/02/28 16:06:49;;;;;;;;;24.00;9.00;;;;;;;;2;261074468;261074468;-84
2022/02/28 16:15:05;;;;;;;;;21.50;12.50;;;;;;;;2;261075227;261075227;-84
2022/02/28 16:24:09;;;;;;;;;9.50;9.50;;;;;;;;2;261074471;261074471;-83
2022/02/28 16:32:25;;;;;;;;;17.00;17.00;;;;;;;;2;261075266;261075266;-85
2022/02/28 16:41:25;;;;;;;;;14.50;12.50;;;;;;;;2;261073077;261073077;-84
2022/02/28 16:49:40;;;;;;;;;10.50;10.50;;;;;;;;2;261075632;261075632;-84
2022/02/28 16:58:41;;;;;;;;;5.00;5.00;;;;;;;;2;261077433;261077433;-83
2022/02/28 17:06:56;;;;;;;;;11.00;11.00;;;;;;;;2;261074980;261074980;-84
2022/02/28 17:15:57;;;;;;;;;19.50;7.00;;;;;;;;2;261076745;261076745;-84
2022/02/28 17:24:12;;;;;;;;;12.00;12.00;;;;;;;;2;261074031;261074031;-84
2022/02/28 17:33:12;;;;;;;;;13.50;13.50;;;;;;;;2;261074958;261074958;-84
2022/02/28 17:41:28;;;;;;;;;26.00;10.00;;;;;;;;2;261075929;261075929;-84
2022/02/28 17:50:28;;;;;;;;;11.50;11.50;;;;;;;;2;261077281;261077281;-84
2022/02/28 17:58:44;;;;;;;;;10.00;8.00;;;;;;;;2;261076473;261076473;-84
2022/02/28 18:07:45;;;;;;;;;9.00;9.00;;;;;;;;2;261070625;261070625;-84
2022/02/28 18:16:00;;;;;;;;;20.00;20.00;;;;;;;;2;261073144;261073144;-82
2022/02/28 18:25:07;;;;;;;;;7.50;7.50;;;;;;;;2;261077300;261077300;-82
2022/02/28 18:33:23;;;;;;;;;11.00;11.00;;;;;;;;2;261075476;261075476;-82
2022/02/28 18:42:23;;;;;;;;;32.50;12.50;;;;;;;;2;261075386;261075386;-83
2022/02/28 18:50:39;;;;;;;;;17.00;15.50;;;;;;;;2;261075839;261075839;-83
2022/02/28 18:59:40;;;;;;;;;20.50;8.00;;;;;;;;2;261074041;261074041;-83
2022/02/28 19:07:57;;;;;;;;;14.00;14.00;;;;;;;;2;261074858;261074858;-83
2022/02/28 19:16:58;;;;;;;;;19.00;19.00;;;;;;;;2;261074476;261074476;-83
2022/02/28 19:25:13;;;;;;;;;20.50;16.50;;;;;;;;2;261072860;261072860;-83
2022/02/28 19:34:13;;;;;;;;;18.00;18.00;;;;;;;;2;261074671;261074671;-83
2022/02/28 19:42:29;;;;;;;;;41.50;18.50;;;;;;;;2;261076870;261076870;-83
2022/02/28 19:51:29;;;;;;;;;35.50;23.50;;;;;;;;2;261076367;261076367;-83
2022/02/28 19:59:46;;;;;;;;;23.50;21.50;;;;;;;;2;261075147;261075147;-84
2022/02/28 20:08:46;;;;;;;;;30.00;27.00;;;;;;;;2;261075679;261075679;-83
2022/02/28 20:17:02;;;;;;;;;40.00;28.50;;;;;;;;2;261076815;261076815;-83
2022/02/28 20:26:02;;;;;;;;;24.00;21.00;;;;;;;;2;261074902;261074902;-83
2022/02/28 20:34:18;;;;;;;;;25.00;22.50;;;;;;;;2;261075377;261075377;-83
2022/02/28 20:43:19;;;;;;;;;26.00;12.00;;;;;;;;2;261075535;261075535;-83
2022/02/28 20:51:34;;;;;;;;;27.50;24.00;;;;;;;;2;261074454;261074454;-83
2022/02/28 21:00:34;;;;;;;;;37.50;23.00;;;;;;;;2;261075172;261075172;-84
2022/02/28 21:08:50;;;;;;;;;30.00;23.50;;;;;;;;2;261078250;261078250;-83
2022/02/28 21:17:50;;;;;;;;;30.50;30.00;;;;;;;;2;261076108;261076108;-82
2022/02/28 21:26:06;;;;;;;;;37.00;29.00;;;;;;;;2;261079236;261079236;-84
2022/02/28 21:35:07;;;;;;;;;44.50;25.50;;;;;;;;2;261072741;261072741;-84
2022/02/28 21:43:23;;;;;;;;;22.00;20.00;;;;;;;;2;261073461;261073461;-83
2022/02/28 21:52:24;;;;;;;;;37.50;28.00;;;;;;;;2;261076607;261076607;-83
2022/02/28 22:00:40;;;;;;;;;23.50;23.50;;;;;;;;2;261075397;261075397;-84
2022/02/28 22:09:40;;;;;;;;;20.00;20.00;;;;;;;;2;261074856;261074856;-83
2022/02/28 22:17:56;;;;;;;;;47.00;23.00;;;;;;;;2;261071819;261071819;-83
2022/02/28 22:26:56;;;;;;;;;42.00;21.50;;;;;;;;2;261077769;261077769;-84
2022/02/28 22:35:11;;;;;;;;;31.50;27.00;;;;;;;;2;261076938;261076938;-79
2022/02/28 22:44:12;;;;;;;;;36.00;33.00;;;;;;;;2;261075878;261075878;-80
2022/02/28 22:52:31;;;;;;;;;25.50;25.50;;;;;;;;2;261079966;261079966;-80
2022/02/28 23:01:38;;;;;;;;;36.00;33.50;;;;;;;;2;261075775;261075775;-80
2022/02/28 23:19:12;;;;;;;;;48.50;26.00;;;;;;;;2;261076371;261076371;-82
2022/02/28 23:27:27;;;;;;;;;24.50;24.50;;;;;;;;2;261078816;261078816;-82
2022/02/28 23:36:27;;;;;;;;;30.00;29.50;;;;;;;;2;261076243;261076243;-82
2022/02/28 23:44:43;;;;;;;;;49.00;35.50;;;;;;;;2;261074651;261074651;-81
2022/02/28 23:53:43;;;;;;;;;32.50;23.50;;;;;;;;2;261075512;261075512;-82
